Time;durP1;ratioP1;P1;durP2;ratioP2;P2;SDS_P1;SDS_P2;PMS_P1;PMS_P2;Temp;Humidity;BMP_temperature;BMP_pressure;BME280_temperature;BME280_humidity;BME280_pressure;Samples;Min_cycle;Max_cycle;Signal;HPM_P1;HPM_P2
2023/08/18 00:00:34;;;;;;;3.95;2.25;;;17.90;99.90;;;;;;4886118;29;20205;-64
2023/08/18 00:03:01;;;;;;;5.70;2.30;;;17.80;99.90;;;;;;4891045;29;20197;-65
2023/08/18 00:05:27;;;;;;;4.10;2.33;;;17.80;99.90;;;;;;4884933;29;20203;-64
2023/08/18 00:07:53;;;;;;;3.20;2.50;;;17.70;99.90;;;;;;4892601;29;20192;-65
2023/08/18 00:10:19;;;;;;;3.88;2.33;;;17.70;99.90;;;;;;4889518;29;20563;-65
2023/08/18 00:12:45;;;;;;;4.40;2.80;;;17.60;99.90;;;;;;4900530;29;20200;-65
2023/08/18 00:15:11;;;;;;;5.28;2.67;;;17.60;99.90;;;;;;4887783;29;20181;-65
2023/08/18 00:17:37;;;;;;;7.47;2.83;;;17.50;99.90;;;;;;4895243;29;20216;-65
2023/08/18 00:20:03;;;;;;;5.78;2.80;;;17.50;99.90;;;;;;4880147;29;20207;-66
2023/08/18 00:22:30;;;;;;;2.80;2.38;;;17.40;99.90;;;;;;4880747;29;20195;-65
2023/08/18 00:24:56;;;;;;;4.25;2.83;;;17.40;99.90;;;;;;4891405;29;20204;-65
2023/08/18 00:27:22;;;;;;;3.75;2.67;;;17.30;99.90;;;;;;4891395;29;20193;-65
2023/08/18 00:29:48;;;;;;;4.53;2.60;;;17.30;99.90;;;;;;4872065;29;20190;-64
2023/08/18 00:32:14;;;;;;;5.20;2.95;;;17.30;99.90;;;;;;4887936;29;20724;-65
2023/08/18 00:34:40;;;;;;;6.00;2.50;;;17.20;99.90;;;;;;4890883;29;20193;-65
2023/08/18 00:37:06;;;;;;;4.63;2.70;;;17.20;99.90;;;;;;4895618;29;20212;-65
2023/08/18 00:39:32;;;;;;;2.53;2.33;;;17.20;99.90;;;;;;4894086;29;20240;-65
2023/08/18 00:41:58;;;;;;;4.97;2.65;;;17.20;99.90;;;;;;4881338;29;20225;-66
2023/08/18 00:44:24;;;;;;;7.72;2.85;;;17.20;99.90;;;;;;4875692;29;20243;-65
2023/08/18 00:46:54;;;;;;;7.47;3.00;;;17.20;99.90;;;;;;4878078;29;20219;-65
2023/08/18 00:49:21;;;;;;;3.88;3.05;;;17.20;99.90;;;;;;4879352;29;20598;-64
2023/08/18 00:51:47;;;;;;;4.43;3.08;;;17.20;99.90;;;;;;4892643;29;20606;-66
2023/08/18 00:54:15;;;;;;;6.53;3.38;;;17.20;99.90;;;;;;4891053;29;20669;-66
2023/08/18 00:56:42;;;;;;;6.43;2.85;;;17.20;99.90;;;;;;4878510;29;20217;-64
2023/08/18 00:59:09;;;;;;;5.55;3.25;;;17.20;99.90;;;;;;4892074;29;20212;-64
2023/08/18 01:01:36;;;;;;;4.68;3.05;;;17.20;99.90;;;;;;4884398;29;20249;-64
2023/08/18 01:04:04;;;;;;;8.40;3.45;;;17.30;99.90;;;;;;4891774;29;20200;-65
2023/08/18 01:06:32;;;;;;;5.30;3.55;;;17.30;99.90;;;;;;4888410;29;20204;-66
2023/08/18 01:08:58;;;;;;;6.13;3.42;;;17.30;99.90;;;;;;4894955;29;20189;-66
2023/08/18 01:11:33;;;;;;;6.20;3.20;;;17.30;99.90;;;;;;4896929;29;20420;-65
2023/08/18 01:14:11;;;;;;;5.68;3.65;;;17.30;99.90;;;;;;4880956;29;20180;-66
2023/08/18 01:16:41;;;;;;;3.72;3.05;;;17.30;99.90;;;;;;4905888;29;20184;-65
2023/08/18 01:19:09;;;;;;;6.00;3.40;;;17.40;99.90;;;;;;4893720;29;20184;-65
2023/08/18 01:21:37;;;;;;;4.75;3.15;;;17.40;99.90;;;;;;4902904;29;20200;-65
2023/08/18 01:24:04;;;;;;;5.28;3.67;;;17.40;99.90;;;;;;4881369;29;20234;-66
2023/08/18 01:26:30;;;;;;;5.28;3.70;;;17.50;99.90;;;;;;4888372;29;20190;-66
2023/08/18 01:28:56;;;;;;;4.97;3.28;;;17.50;99.90;;;;;;4881117;29;20200;-65
2023/08/18 01:31:28;;;;;;;7.72;4.10;;;17.50;99.90;;;;;;4880547;29;20265;-65
2023/08/18 01:34:07;;;;;;;6.20;3.55;;;17.50;99.90;;;;;;4905669;29;20196;-66
2023/08/18 01:36:41;;;;;;;10.80;3.90;;;17.50;99.90;;;;;;4878745;29;20236;-65
2023/08/18 01:39:08;;;;;;;4.65;3.75;;;17.50;99.90;;;;;;4876755;29;20184;-65
2023/08/18 01:41:35;;;;;;;9.30;4.03;;;17.60;99.90;;;;;;4879264;29;20216;-66
2023/08/18 01:44:06;;;;;;;10.23;3.85;;;17.60;99.90;;;;;;4882131;29;20280;-66
2023/08/18 01:46:32;;;;;;;6.88;3.63;;;17.60;99.90;;;;;;4881054;29;20249;-65
2023/08/18 01:48:59;;;;;;;6.07;3.60;;;17.60;99.90;;;;;;4886322;29;20196;-66
2023/08/18 01:51:25;;;;;;;7.90;3.78;;;17.60;99.90;;;;;;4891452;29;20189;-66
2023/08/18 01:53:51;;;;;;;6.05;3.70;;;17.70;99.90;;;;;;4886415;29;20681;-65
2023/08/18 01:56:19;;;;;;;6.40;3.72;;;17.70;99.90;;;;;;4881410;29;20201;-66
2023/08/18 01:58:45;;;;;;;4.28;3.50;;;17.70;99.90;;;;;;4881863;29;20281;-65
2023/08/18 02:01:11;;;;;;;6.07;3.55;;;17.70;99.90;;;;;;4898201;29;20315;-66
2023/08/18 02:03:37;;;;;;;5.65;3.70;;;17.70;99.90;;;;;;4897524;29;20213;-66
2023/08/18 02:06:03;;;;;;;6.00;4.03;;;17.70;99.90;;;;;;4891592;29;20189;-65
2023/08/18 02:08:29;;;;;;;7.40;4.20;;;17.70;99.90;;;;;;4881573;29;20197;-65
2023/08/18 02:11:02;;;;;;;8.48;4.10;;;17.70;99.90;;;;;;4891546;29;20542;-65
2023/08/18 02:13:29;;;;;;;7.32;4.35;;;17.70;99.90;;;;;;4899179;29;20212;-65
2023/08/18 02:15:55;;;;;;;6.53;4.15;;;17.70;99.90;;;;;;4890335;29;20192;-64
2023/08/18 02:18:21;;;;;;;7.57;4.47;;;17.60;99.90;;;;;;4879891;29;20223;-65
2023/08/18 02:20:53;;;;;;;7.88;4.53;;;17.60;99.90;;;;;;4900723;29;20196;-67
2023/08/18 02:23:19;;;;;;;8.23;4.43;;;17.60;99.90;;;;;;4912838;29;20199;-65
2023/08/18 02:25:46;;;;;;;7.50;4.45;;;17.60;99.90;;;;;;4888210;29;20261;-64
2023/08/18 02:28:14;;;;;;;7.90;4.25;;;17.60;99.90;;;;;;4912875;29;20188;-65
2023/08/18 02:30:39;;;;;;;7.55;4.40;;;17.60;99.90;;;;;;4898004;29;20236;-65
2023/08/18 02:33:05;;;;;;;9.25;4.45;;;17.70;99.90;;;;;;4897142;29;20252;-67
2023/08/18 02:35:32;;;;;;;6.72;4.40;;;17.60;99.90;;;;;;4897974;29;20223;-65
2023/08/18 02:37:58;;;;;;;6.72;4.50;;;17.70;99.90;;;;;;4892006;29;20852;-65
2023/08/18 02:40:24;;;;;;;7.20;4.82;;;17.70;99.90;;;;;;4896865;29;20204;-65
2023/08/18 02:42:49;;;;;;;6.75;4.47;;;17.70;99.90;;;;;;4892075;29;20551;-65
2023/08/18 02:45:15;;;;;;;5.50;4.80;;;17.70;99.90;;;;;;4899188;29;20220;-65
2023/08/18 02:47:41;;;;;;;9.77;4.75;;;17.70;99.90;;;;;;4894572;29;20272;-65
2023/08/18 02:50:07;;;;;;;9.88;4.60;;;17.70;99.90;;;;;;4874381;29;20224;-65
2023/08/18 02:52:33;;;;;;;6.88;4.85;;;17.70;99.90;;;;;;4889032;29;20721;-65
2023/08/18 02:54:59;;;;;;;6.50;4.50;;;17.70;99.90;;;;;;4894177;29;20192;-65
2023/08/18 02:57:25;;;;;;;10.20;4.75;;;17.70;99.90;;;;;;4896230;29;20669;-65
2023/08/18 02:59:52;;;;;;;7.63;4.88;;;17.70;99.90;;;;;;4897693;29;20199;-65
2023/08/18 03:02:18;;;;;;;9.27;5.35;;;17.70;99.90;;;;;;4889291;29;20189;-65
2023/08/18 03:04:44;;;;;;;7.85;5.05;;;17.80;99.90;;;;;;4890900;29;20557;-65
2023/08/18 03:07:10;;;;;;;11.32;4.90;;;17.80;99.90;;;;;;4897313;29;20192;-66
2023/08/18 03:09:36;;;;;;;10.15;4.97;;;17.80;99.90;;;;;;4898207;29;20196;-65
2023/08/18 03:12:02;;;;;;;8.68;5.18;;;17.80;99.90;;;;;;4896415;29;20192;-66
2023/08/18 03:14:27;;;;;;;11.00;5.50;;;17.80;99.90;;;;;;4897452;29;20199;-66
2023/08/18 03:16:53;;;;;;;8.90;5.55;;;17.80;99.90;;;;;;4892738;29;20601;-64
2023/08/18 03:19:19;;;;;;;10.10;5.20;;;17.80;99.90;;;;;;4891443;29;20195;-66
2023/08/18 03:21:45;;;;;;;9.73;5.70;;;17.80;99.90;;;;;;4890710;29;20200;-64
2023/08/18 03:24:13;;;;;;;8.85;5.75;;;17.80;99.90;;;;;;4878458;29;20209;-65
2023/08/18 03:26:39;;;;;;;8.18;5.38;;;17.90;99.90;;;;;;4894739;29;20228;-65
2023/08/18 03:29:05;;;;;;;8.85;6.22;;;17.90;99.90;;;;;;4896768;29;20725;-65
2023/08/18 03:31:31;;;;;;;10.38;5.85;;;17.90;99.90;;;;;;4894562;29;20268;-63
2023/08/18 03:33:57;;;;;;;11.50;6.05;;;17.90;99.90;;;;;;4878458;29;20265;-65
2023/08/18 03:36:23;;;;;;;11.75;5.93;;;17.90;99.90;;;;;;4895654;29;20658;-64
2023/08/18 03:38:49;;;;;;;10.32;6.35;;;17.90;99.90;;;;;;4907975;29;20228;-65
2023/08/18 03:41:15;;;;;;;8.90;5.82;;;17.90;99.90;;;;;;4893760;29;20188;-65
2023/08/18 03:43:42;;;;;;;9.27;5.75;;;17.90;99.90;;;;;;4895836;29;20675;-64
2023/08/18 03:46:25;;;;;;;10.52;6.25;;;17.90;99.90;;;;;;4896441;29;20193;-61
2023/08/18 03:48:54;;;;;;;9.73;5.88;;;17.90;99.90;;;;;;4896437;29;20197;-63
2023/08/18 03:51:20;;;;;;;9.30;6.38;;;17.90;99.90;;;;;;4888503;29;20497;-63
2023/08/18 03:53:46;;;;;;;14.50;5.80;;;17.90;99.90;;;;;;4893294;29;20287;-64
2023/08/18 03:56:13;;;;;;;10.35;6.30;;;17.90;99.90;;;;;;4881117;29;20568;-64
2023/08/18 03:58:39;;;;;;;9.93;5.95;;;17.90;99.90;;;;;;4893380;29;20216;-66
2023/08/18 04:01:08;;;;;;;13.48;6.55;;;17.90;99.90;;;;;;4897637;29;20201;-64
2023/08/18 04:03:36;;;;;;;9.30;6.18;;;17.90;99.90;;;;;;4890658;29;20196;-64
2023/08/18 04:06:03;;;;;;;9.48;6.47;;;17.90;99.90;;;;;;4893741;29;20189;-66
2023/08/18 04:08:34;;;;;;;9.32;6.10;;;17.90;99.90;;;;;;4895861;29;20197;-64
2023/08/18 04:11:00;;;;;;;8.60;5.93;;;17.90;99.90;;;;;;4897702;29;20264;-63
2023/08/18 04:13:26;;;;;;;9.98;6.22;;;17.90;99.90;;;;;;4911638;29;20709;-64
2023/08/18 04:15:52;;;;;;;9.40;6.60;;;17.90;99.90;;;;;;4893825;29;20335;-62
2023/08/18 04:18:18;;;;;;;8.00;5.80;;;17.90;99.90;;;;;;4893710;29;20769;-63
2023/08/18 04:20:44;;;;;;;9.23;6.40;;;17.90;99.90;;;;;;4897336;29;20224;-62
2023/08/18 04:23:10;;;;;;;10.57;6.05;;;17.90;99.90;;;;;;4895753;29;20582;-62
2023/08/18 04:25:36;;;;;;;10.80;6.22;;;17.90;99.90;;;;;;4873545;29;20204;-62
2023/08/18 04:28:02;;;;;;;9.68;6.07;;;18.00;99.90;;;;;;4908374;29;20612;-63
2023/08/18 04:30:30;;;;;;;12.93;6.45;;;17.90;99.90;;;;;;4886653;29;20296;-63
2023/08/18 04:32:58;;;;;;;11.45;6.07;;;17.90;99.90;;;;;;4892081;29;20241;-63
2023/08/18 04:35:24;;;;;;;10.18;6.30;;;18.00;99.90;;;;;;4857102;29;20228;-65
2023/08/18 04:37:50;;;;;;;14.85;6.10;;;18.00;99.90;;;;;;4878666;29;20236;-66
2023/08/18 04:40:17;;;;;;;13.13;6.55;;;18.00;99.90;;;;;;4896279;29;20231;-66
2023/08/18 04:42:43;;;;;;;14.85;6.32;;;18.00;99.90;;;;;;4895568;29;20226;-64
2023/08/18 04:45:09;;;;;;;14.20;6.40;;;18.00;99.90;;;;;;4893890;29;20216;-63
2023/08/18 04:47:35;;;;;;;10.77;6.13;;;18.00;99.90;;;;;;4888864;29;20188;-65
2023/08/18 04:50:04;;;;;;;10.88;6.55;;;18.00;99.90;;;;;;4892201;29;20205;-64
2023/08/18 04:52:31;;;;;;;9.82;6.35;;;18.00;99.90;;;;;;4889956;29;20657;-65
2023/08/18 04:54:57;;;;;;;12.88;5.85;;;18.00;99.90;;;;;;4888441;29;20197;-65
2023/08/18 04:57:23;;;;;;;9.40;5.85;;;18.00;99.90;;;;;;4900665;29;20205;-64
2023/08/18 04:59:49;;;;;;;12.70;6.07;;;18.00;99.90;;;;;;4892665;29;20205;-64
2023/08/18 05:02:15;;;;;;;14.27;6.28;;;18.10;99.90;;;;;;4890265;29;20193;-66
2023/08/18 05:04:41;;;;;;;8.98;5.70;;;18.10;99.90;;;;;;4894613;29;20340;-65
2023/08/18 05:07:07;;;;;;;11.43;5.57;;;18.10;99.90;;;;;;4885427;29;20189;-64
2023/08/18 05:09:34;;;;;;;16.10;5.80;;;18.10;99.90;;;;;;4892848;29;20196;-67
2023/08/18 05:12:00;;;;;;;10.13;5.65;;;18.10;99.90;;;;;;4890413;29;20225;-65
2023/08/18 05:14:26;;;;;;;9.50;5.18;;;18.10;99.90;;;;;;4899270;29;20696;-64
2023/08/18 05:16:52;;;;;;;7.60;5.18;;;18.20;99.90;;;;;;4899065;29;20177;-66
2023/08/18 05:19:17;;;;;;;9.77;5.13;;;18.20;99.90;;;;;;4896461;29;20192;-65
2023/08/18 05:21:43;;;;;;;9.15;5.63;;;18.20;99.90;;;;;;4900418;29;20192;-65
2023/08/18 05:24:09;;;;;;;7.35;5.38;;;18.20;99.90;;;;;;4900429;29;20204;-65
2023/08/18 05:26:35;;;;;;;9.18;5.68;;;18.20;99.90;;;;;;4893082;29;20279;-64
2023/08/18 05:29:01;;;;;;;11.45;6.00;;;18.30;99.90;;;;;;4894997;29;20192;-65
2023/08/18 05:31:27;;;;;;;8.63;5.60;;;18.30;99.90;;;;;;4894689;29;20233;-65
2023/08/18 05:33:53;;;;;;;11.68;5.78;;;18.30;99.90;;;;;;4899764;29;20199;-66
2023/08/18 05:36:19;;;;;;;11.10;5.50;;;18.30;99.90;;;;;;4899769;29;20195;-65
2023/08/18 05:38:45;;;;;;;11.25;5.78;;;18.30;99.90;;;;;;4897452;29;20318;-65
2023/08/18 05:41:14;;;;;;;10.38;6.10;;;18.30;99.90;;;;;;4890118;29;20197;-66
2023/08/18 05:43:41;;;;;;;12.20;6.18;;;18.30;99.90;;;;;;4914487;29;20230;-65
2023/08/18 05:46:07;;;;;;;13.73;5.45;;;18.30;99.90;;;;;;4898414;29;20208;-65
2023/08/18 05:48:33;;;;;;;7.95;5.68;;;18.30;99.90;;;;;;4890838;29;20220;-67
2023/08/18 05:51:00;;;;;;;8.52;5.75;;;18.30;99.90;;;;;;4892602;29;20188;-65
2023/08/18 05:53:26;;;;;;;9.65;5.40;;;18.30;99.90;;;;;;4895109;29;20203;-64
2023/08/18 05:55:52;;;;;;;10.27;5.75;;;18.30;99.90;;;;;;4888403;29;20190;-65
2023/08/18 05:58:19;;;;;;;12.43;5.80;;;18.30;99.90;;;;;;4895699;29;20208;-67
2023/08/18 06:00:47;;;;;;;9.90;5.55;;;18.30;99.90;;;;;;4899528;29;20669;-66
2023/08/18 06:03:13;;;;;;;11.23;5.55;;;18.30;99.90;;;;;;4899299;29;20193;-67
2023/08/18 06:05:39;;;;;;;13.43;5.70;;;18.30;99.90;;;;;;4889533;29;20518;-65
2023/08/18 06:08:05;;;;;;;9.48;5.60;;;18.30;99.90;;;;;;4879107;29;20218;-67
2023/08/18 06:10:31;;;;;;;10.00;5.85;;;18.30;99.90;;;;;;4905498;29;20283;-66
2023/08/18 06:12:57;;;;;;;12.07;5.40;;;18.30;99.90;;;;;;4892019;29;20638;-65
2023/08/18 06:15:24;;;;;;;12.80;5.50;;;18.40;99.90;;;;;;4880747;29;20192;-64
2023/08/18 06:17:50;;;;;;;11.57;5.78;;;18.40;99.90;;;;;;4883768;29;20224;-65
2023/08/18 06:20:16;;;;;;;12.75;6.00;;;18.40;99.90;;;;;;4880559;29;20674;-66
2023/08/18 06:22:42;;;;;;;10.77;5.65;;;18.50;99.90;;;;;;4880796;29;20197;-67
2023/08/18 06:25:10;;;;;;;15.25;6.10;;;18.50;99.90;;;;;;4897964;29;20212;-64
2023/08/18 06:27:36;;;;;;;12.00;6.28;;;18.50;99.90;;;;;;4885267;29;20196;-65
2023/08/18 06:30:02;;;;;;;14.50;6.30;;;18.50;99.90;;;;;;4903379;29;20193;-62
2023/08/18 06:32:28;;;;;;;10.73;6.45;;;18.60;99.90;;;;;;4895625;29;20292;-67
2023/08/18 06:34:54;;;;;;;12.45;6.35;;;18.60;99.90;;;;;;4886138;29;20625;-65
2023/08/18 06:37:20;;;;;;;13.52;6.70;;;18.60;99.90;;;;;;4896632;29;20220;-66
2023/08/18 06:39:46;;;;;;;13.48;6.85;;;18.70;99.90;;;;;;4884656;29;20203;-64
2023/08/18 06:42:13;;;;;;;14.75;5.90;;;18.70;99.90;;;;;;4884957;29;20201;-64
2023/08/18 06:44:39;;;;;;;12.25;6.50;;;18.70;99.90;;;;;;4904669;29;20185;-65
2023/08/18 06:47:06;;;;;;;11.45;6.18;;;18.70;99.90;;;;;;4879259;29;20662;-64
2023/08/18 06:49:32;;;;;;;12.35;6.45;;;18.80;99.90;;;;;;4888209;29;20275;-65
2023/08/18 06:51:58;;;;;;;12.50;7.10;;;18.80;99.90;;;;;;4888575;29;20204;-65
2023/08/18 06:54:24;;;;;;;14.68;6.88;;;18.80;99.90;;;;;;4890456;29;20193;-64
2023/08/18 06:56:49;;;;;;;13.02;7.35;;;18.80;99.90;;;;;;4887231;29;20196;-64
2023/08/18 06:59:16;;;;;;;12.60;7.03;;;18.80;99.90;;;;;;4891886;29;20752;-66
2023/08/18 07:01:41;;;;;;;12.40;6.90;;;18.90;99.90;;;;;;4889678;29;20192;-66
2023/08/18 07:04:08;;;;;;;14.73;7.82;;;18.90;99.90;;;;;;4870243;29;20193;-66
2023/08/18 07:06:34;;;;;;;14.88;7.78;;;18.90;99.90;;;;;;4900395;29;20280;-66
2023/08/18 07:09:01;;;;;;;12.30;7.93;;;18.90;99.90;;;;;;4878704;29;20181;-66
2023/08/18 07:11:27;;;;;;;14.30;8.10;;;18.90;99.90;;;;;;4860044;29;20661;-67
2023/08/18 07:13:53;;;;;;;15.63;8.05;;;19.00;99.90;;;;;;4884302;29;20272;-66
2023/08/18 07:16:19;;;;;;;15.02;7.80;;;19.00;99.90;;;;;;4882015;29;20197;-66
2023/08/18 07:18:44;;;;;;;17.40;8.20;;;19.10;99.90;;;;;;4894979;29;20251;-67
2023/08/18 07:21:10;;;;;;;14.55;7.38;;;19.10;99.90;;;;;;4890081;29;20193;-65
2023/08/18 07:23:36;;;;;;;17.45;8.25;;;19.10;99.90;;;;;;4886839;29;20204;-67
2023/08/18 07:26:03;;;;;;;14.57;7.30;;;19.20;99.90;;;;;;4896780;29;20191;-68
2023/08/18 07:28:29;;;;;;;13.52;7.53;;;19.20;99.90;;;;;;4897595;29;20264;-66
2023/08/18 07:31:00;;;;;;;16.00;8.32;;;19.20;99.90;;;;;;4894435;29;20248;-65
2023/08/18 07:33:26;;;;;;;19.65;9.32;;;19.20;99.90;;;;;;4873155;29;20192;-65
2023/08/18 07:35:52;;;;;;;18.65;8.70;;;19.20;99.90;;;;;;4886480;29;20279;-64
2023/08/18 07:38:18;;;;;;;16.00;8.90;;;19.20;99.90;;;;;;4888456;29;20268;-65
2023/08/18 07:40:43;;;;;;;16.92;7.93;;;19.20;99.90;;;;;;4893762;29;20211;-65
2023/08/18 07:43:10;;;;;;;16.05;8.93;;;19.20;99.90;;;;;;4883355;29;20188;-66
2023/08/18 07:45:36;;;;;;;14.32;8.93;;;19.20;99.90;;;;;;4888396;29;20923;-66
2023/08/18 07:48:02;;;;;;;17.35;9.18;;;19.20;99.90;;;;;;4896275;29;20195;-66
2023/08/18 07:50:28;;;;;;;18.55;9.65;;;19.20;99.90;;;;;;4888844;29;20193;-65
2023/08/18 07:52:55;;;;;;;15.95;9.55;;;19.20;99.90;;;;;;4889870;29;20200;-66
2023/08/18 07:55:22;;;;;;;16.60;9.98;;;19.20;99.90;;;;;;4894981;29;20177;-65
2023/08/18 07:57:48;;;;;;;16.38;10.77;;;19.30;99.90;;;;;;4895692;29;20265;-66
2023/08/18 08:00:17;;;;;;;19.33;10.52;;;19.30;99.90;;;;;;4893921;29;20192;-66
2023/08/18 08:02:44;;;;;;;17.55;10.40;;;19.30;99.90;;;;;;4896229;29;20705;-67
2023/08/18 08:05:10;;;;;;;17.48;9.88;;;19.30;99.90;;;;;;4897204;29;20232;-67
2023/08/18 08:07:36;;;;;;;21.50;10.45;;;19.40;99.90;;;;;;4881574;29;20195;-68
2023/08/18 08:10:04;;;;;;;17.33;9.70;;;19.40;99.90;;;;;;4889240;29;20261;-67
2023/08/18 08:12:31;;;;;;;24.88;11.02;;;19.40;99.90;;;;;;4894942;29;20203;-67
2023/08/18 08:14:58;;;;;;;21.60;9.43;;;19.50;99.90;;;;;;4880542;29;20932;-66
2023/08/18 08:17:24;;;;;;;19.08;8.95;;;19.60;99.90;;;;;;4888213;29;20221;-66
2023/08/18 08:19:50;;;;;;;17.10;8.93;;;19.70;99.90;;;;;;4891911;29;20192;-68
2023/08/18 08:22:16;;;;;;;14.80;8.00;;;19.80;99.90;;;;;;4882979;29;20204;-66
2023/08/18 08:24:43;;;;;;;19.27;9.18;;;19.80;99.90;;;;;;4860792;29;20197;-67
2023/08/18 08:27:09;;;;;;;19.30;8.05;;;19.90;99.90;;;;;;4895181;29;20629;-67
2023/08/18 08:29:36;;;;;;;18.17;7.75;;;20.00;99.90;;;;;;4868345;29;20197;-66
2023/08/18 08:32:02;;;;;;;22.52;7.78;;;20.10;99.90;;;;;;4874432;29;20652;-65
2023/08/18 08:34:28;;;;;;;18.70;7.97;;;20.20;99.90;;;;;;4879780;29;20189;-67
2023/08/18 08:36:54;;;;;;;11.73;7.57;;;20.30;99.90;;;;;;4878336;29;20665;-66
2023/08/18 08:39:20;;;;;;;15.50;7.40;;;20.40;99.90;;;;;;4886108;29;20609;-67
2023/08/18 08:41:46;;;;;;;17.60;7.10;;;20.50;99.90;;;;;;4896019;29;20218;-64
2023/08/18 08:44:12;;;;;;;10.90;6.93;;;20.50;99.90;;;;;;4910711;29;20188;-67
2023/08/18 08:46:40;;;;;;;13.00;7.07;;;20.60;99.90;;;;;;4894863;29;20200;-65
2023/08/18 08:49:07;;;;;;;13.77;6.75;;;20.60;99.90;;;;;;4884179;29;20200;-65
2023/08/18 08:51:37;;;;;;;16.15;7.13;;;20.60;99.90;;;;;;4887741;29;20188;-65
2023/08/18 08:54:06;;;;;;;14.23;7.82;;;20.60;99.90;;;;;;4887666;29;20199;-64
2023/08/18 08:56:34;;;;;;;13.15;8.00;;;20.70;99.90;;;;;;4891980;29;20668;-65
2023/08/18 08:59:01;;;;;;;15.20;7.50;;;20.80;99.90;;;;;;4892471;29;20216;-65
2023/08/18 09:01:27;;;;;;;13.48;7.63;;;20.80;99.90;;;;;;4895082;29;20192;-65
2023/08/18 09:03:54;;;;;;;12.60;8.05;;;21.00;99.90;;;;;;4893696;29;20188;-66
2023/08/18 09:06:20;;;;;;;14.90;7.60;;;21.00;99.90;;;;;;4891577;29;20196;-67
2023/08/18 09:08:46;;;;;;;15.35;6.90;;;21.00;99.90;;;;;;4896731;29;20196;-68
2023/08/18 09:11:12;;;;;;;9.98;5.90;;;21.10;99.90;;;;;;4896342;29;20203;-67
2023/08/18 09:13:39;;;;;;;12.63;6.00;;;21.10;99.90;;;;;;4882957;29;20314;-68
2023/08/18 09:16:08;;;;;;;13.15;7.13;;;21.10;99.90;;;;;;4891424;29;20207;-66
2023/08/18 09:18:35;;;;;;;13.00;6.57;;;21.20;99.90;;;;;;4885865;29;20220;-66
2023/08/18 09:21:06;;;;;;;12.70;6.30;;;21.30;99.90;;;;;;4894595;29;20192;-65
2023/08/18 09:23:32;;;;;;;12.98;6.30;;;21.40;99.90;;;;;;4896356;29;20193;-66
2023/08/18 09:25:58;;;;;;;13.93;5.95;;;21.40;99.90;;;;;;4890966;29;20188;-66
2023/08/18 09:28:25;;;;;;;8.73;5.80;;;21.40;99.90;;;;;;4881140;29;20659;-64
2023/08/18 09:30:51;;;;;;;13.40;5.50;;;21.40;99.90;;;;;;4873086;29;20328;-67
2023/08/18 09:33:17;;;;;;;11.00;6.00;;;21.50;99.90;;;;;;4901039;29;20189;-66
2023/08/18 09:35:43;;;;;;;13.05;5.45;;;21.60;99.90;;;;;;4888007;29;20197;-66
2023/08/18 09:38:13;;;;;;;10.80;6.20;;;21.60;99.90;;;;;;4889216;29;20232;-66
2023/08/18 09:40:39;;;;;;;12.15;6.18;;;21.60;99.90;;;;;;4884177;29;20283;-66
2023/08/18 09:43:05;;;;;;;10.63;6.30;;;21.50;99.90;;;;;;4893229;29;20308;-65
2023/08/18 09:45:32;;;;;;;12.75;6.35;;;21.60;99.90;;;;;;4898750;29;20192;-66
2023/08/18 09:48:04;;;;;;;13.98;5.97;;;21.60;99.90;;;;;;4894276;29;20184;-66
2023/08/18 09:50:32;;;;;;;9.38;6.55;;;21.70;99.90;;;;;;4890041;29;20226;-66
2023/08/18 09:52:59;;;;;;;13.45;6.50;;;21.80;99.90;;;;;;4890689;29;20192;-66
2023/08/18 09:55:33;;;;;;;15.77;6.65;;;21.80;99.90;;;;;;4899456;29;20531;-66
2023/08/18 09:58:24;;;;;;;14.70;8.52;;;21.90;99.90;;;;;;4897757;29;20227;-66
2023/08/18 10:00:56;;;;;;;12.38;7.28;;;21.90;99.90;;;;;;4894971;29;20664;-66
2023/08/18 10:03:28;;;;;;;10.60;7.18;;;21.90;99.90;;;;;;4890265;29;20672;-66
2023/08/18 10:05:54;;;;;;;12.98;7.80;;;22.00;99.90;;;;;;4899498;29;20622;-67
2023/08/18 10:08:26;;;;;;;13.57;7.50;;;22.00;99.90;;;;;;4882739;29;20204;-67
2023/08/18 10:10:51;;;;;;;11.75;7.45;;;21.90;99.90;;;;;;4897722;29;20192;-66
2023/08/18 10:13:18;;;;;;;11.88;7.00;;;21.90;99.90;;;;;;4891244;29;20196;-66
2023/08/18 10:15:47;;;;;;;11.45;7.40;;;21.90;99.90;;;;;;4898793;29;20180;-67
2023/08/18 10:18:13;;;;;;;10.82;7.40;;;22.00;99.90;;;;;;4896579;29;20693;-67
2023/08/18 10:21:00;;;;;;;11.27;7.30;;;22.10;99.90;;;;;;4895096;29;20196;-65
2023/08/18 10:23:30;;;;;;;19.20;8.98;;;22.20;99.90;;;;;;4895102;29;20196;-66
2023/08/18 10:25:56;;;;;;;12.50;7.88;;;22.40;99.90;;;;;;4897659;29;20679;-67
2023/08/18 10:28:27;;;;;;;15.45;7.72;;;22.50;99.90;;;;;;4897015;29;20226;-66
2023/08/18 10:31:03;;;;;;;11.93;7.65;;;22.60;99.90;;;;;;4897541;29;20256;-66
2023/08/18 10:33:44;;;;;;;13.82;7.70;;;22.70;99.90;;;;;;4885183;29;20215;-66
2023/08/18 10:36:16;;;;;;;14.02;7.65;;;22.70;99.90;;;;;;4897503;29;20188;-66
2023/08/18 10:38:42;;;;;;;14.05;7.50;;;22.70;99.90;;;;;;4898290;29;20247;-66
2023/08/18 10:41:08;;;;;;;17.45;8.07;;;22.80;99.90;;;;;;4897511;29;20637;-65
2023/08/18 10:43:51;;;;;;;11.52;7.50;;;22.80;99.90;;;;;;4896988;29;20259;-65
2023/08/18 10:46:17;;;;;;;15.23;7.75;;;22.80;99.90;;;;;;4896716;29;20192;-66
2023/08/18 10:48:43;;;;;;;12.88;7.60;;;22.80;99.90;;;;;;4897525;29;20760;-66
2023/08/18 10:51:09;;;;;;;10.15;7.28;;;22.90;99.90;;;;;;4897454;29;20220;-66
2023/08/18 10:53:40;;;;;;;17.45;7.63;;;23.00;99.90;;;;;;4893215;29;20217;-66
2023/08/18 10:56:06;;;;;;;12.25;7.90;;;23.00;99.90;;;;;;4890588;29;20415;-65
2023/08/18 10:58:34;;;;;;;13.18;7.43;;;23.00;99.90;;;;;;4878610;29;20228;-66
2023/08/18 11:01:00;;;;;;;15.25;7.35;;;23.20;99.90;;;;;;4896237;29;20215;-67
2023/08/18 11:03:26;;;;;;;18.08;7.35;;;23.30;99.90;;;;;;4897108;29;20199;-66
2023/08/18 11:05:52;;;;;;;12.90;6.60;;;23.40;99.90;;;;;;4885827;29;20201;-64
2023/08/18 11:08:18;;;;;;;12.18;7.28;;;23.50;99.90;;;;;;4896770;29;20215;-66
2023/08/18 11:10:44;;;;;;;10.90;6.72;;;23.60;99.90;;;;;;4880999;29;20196;-67
2023/08/18 11:13:22;;;;;;;11.02;6.57;;;23.70;99.90;;;;;;4897114;29;20196;-67
2023/08/18 11:15:52;;;;;;;12.55;7.53;;;23.80;99.90;;;;;;4891288;29;20204;-65
2023/08/18 11:18:19;;;;;;;12.75;7.53;;;23.90;99.90;;;;;;4893327;29;20225;-67
2023/08/18 11:20:45;;;;;;;13.75;7.72;;;24.00;99.90;;;;;;4890562;29;20200;-67
2023/08/18 11:23:11;;;;;;;14.13;7.30;;;24.10;99.90;;;;;;4886488;29;20227;-65
2023/08/18 11:25:37;;;;;;;10.82;7.18;;;24.10;99.90;;;;;;4898099;29;20645;-66
2023/08/18 11:28:03;;;;;;;9.27;7.18;;;24.20;99.90;;;;;;4891604;29;20283;-67
2023/08/18 11:30:32;;;;;;;10.20;6.60;;;24.20;99.90;;;;;;4891073;29;20208;-66
2023/08/18 11:32:58;;;;;;;10.60;7.55;;;24.20;99.90;;;;;;4894491;29;20294;-65
2023/08/18 11:35:25;;;;;;;10.48;6.97;;;24.30;99.90;;;;;;4896704;29;20712;-66
2023/08/18 11:37:52;;;;;;;7.90;6.57;;;24.30;99.90;;;;;;4896189;29;20225;-67
2023/08/18 11:40:22;;;;;;;14.13;9.25;;;24.50;99.90;;;;;;4896000;29;20279;-66
2023/08/18 11:42:49;;;;;;;11.43;7.57;;;24.60;99.90;;;;;;4891147;29;20187;-67
2023/08/18 11:45:17;;;;;;;8.98;6.68;;;24.60;99.90;;;;;;4896533;29;20189;-67
2023/08/18 11:47:44;;;;;;;9.50;7.00;;;24.60;99.90;;;;;;4895888;29;20224;-67
2023/08/18 11:50:13;;;;;;;11.40;7.00;;;24.70;99.90;;;;;;4881031;29;20193;-66
2023/08/18 11:52:43;;;;;;;13.60;7.00;;;24.80;99.90;;;;;;4896262;29;20621;-66
2023/08/18 11:55:11;;;;;;;15.23;9.10;;;24.90;99.90;;;;;;4889769;29;20188;-66
2023/08/18 11:57:40;;;;;;;11.07;7.57;;;25.00;99.90;;;;;;4910207;29;20219;-66
2023/08/18 12:00:13;;;;;;;11.00;7.40;;;25.10;99.90;;;;;;4890705;29;20200;-66
2023/08/18 12:02:44;;;;;;;13.63;7.88;;;25.10;99.90;;;;;;4889042;29;20188;-66
2023/08/18 12:05:23;;;;;;;12.43;7.47;;;25.20;99.90;;;;;;4889805;29;20204;-66
2023/08/18 12:07:52;;;;;;;13.45;10.23;;;25.20;99.90;;;;;;4897025;29;20231;-66
2023/08/18 12:10:20;;;;;;;9.70;7.20;;;25.20;99.90;;;;;;4894603;29;20184;-66
2023/08/18 12:12:56;;;;;;;11.32;8.02;;;25.30;99.90;;;;;;4897279;29;20253;-66
2023/08/18 12:15:25;;;;;;;11.13;7.53;;;25.40;99.90;;;;;;4888465;29;20231;-66
2023/08/18 12:17:52;;;;;;;11.45;7.60;;;25.40;99.90;;;;;;4895794;29;20284;-66
2023/08/18 12:20:18;;;;;;;12.52;7.72;;;25.40;99.90;;;;;;4910975;29;20552;-65
2023/08/18 12:22:46;;;;;;;13.13;7.78;;;25.50;99.90;;;;;;4895931;29;20200;-67
2023/08/18 12:25:12;;;;;;;12.52;8.65;;;25.50;99.90;;;;;;4892157;29;20271;-66
2023/08/18 12:27:38;;;;;;;12.27;8.27;;;25.50;99.90;;;;;;4886050;29;20215;-65
2023/08/18 12:30:06;;;;;;;11.73;8.75;;;25.50;99.90;;;;;;4896421;29;20568;-67
2023/08/18 12:32:33;;;;;;;12.82;9.05;;;25.60;99.90;;;;;;4896278;29;20243;-65
2023/08/18 12:34:59;;;;;;;16.08;9.02;;;25.50;99.90;;;;;;4893028;29;20200;-68
2023/08/18 12:37:25;;;;;;;11.77;8.98;;;25.40;99.90;;;;;;4890179;29;20693;-68
2023/08/18 12:39:52;;;;;;;18.70;13.18;;;25.30;99.90;;;;;;4897477;29;20220;-69